Time;durP1;ratioP1;P1;durP2;ratioP2;P2;SDS_P1;SDS_P2;PMS_P1;PMS_P2;Temp;Humidity;BMP_temperature;BMP_pressure;BME280_temperature;BME280_humidity;BME280_pressure;Samples;Min_cycle;Max_cycle;Signal;HPM_P1;HPM_P2
2022/09/12 00:00:51;;;;;;;22.92;14.07;;;18.30;57.20;;;;;;4999580;28;20072;-58
2022/09/12 00:03:18;;;;;;;22.35;13.90;;;18.20;57.20;;;;;;5003902;28;20050;-57
2022/09/12 00:05:47;;;;;;;22.90;14.52;;;18.20;57.30;;;;;;5002104;28;20061;-59
2022/09/12 00:08:15;;;;;;;22.25;14.90;;;18.20;57.40;;;;;;5002062;28;20058;-59
2022/09/12 00:10:44;;;;;;;21.38;13.38;;;18.20;57.40;;;;;;4998144;28;20053;-59
2022/09/12 00:13:12;;;;;;;19.65;13.82;;;18.10;57.40;;;;;;5003731;28;20061;-59
2022/09/12 00:15:41;;;;;;;26.23;15.60;;;18.20;57.50;;;;;;5002754;28;20045;-57
2022/09/12 00:18:12;;;;;;;22.25;14.13;;;18.10;57.50;;;;;;5001505;28;20529;-59
2022/09/12 00:20:42;;;;;;;20.23;13.07;;;18.10;57.50;;;;;;4999897;28;20057;-58
2022/09/12 00:23:09;;;;;;;19.80;13.20;;;18.10;57.60;;;;;;5002690;28;20050;-59
2022/09/12 00:25:41;;;;;;;20.05;12.35;;;18.10;57.60;;;;;;5000900;28;20050;-60
2022/09/12 00:28:08;;;;;;;21.52;14.20;;;18.10;57.70;;;;;;5002374;28;20057;-59
2022/09/12 00:30:40;;;;;;;19.52;13.30;;;18.10;57.60;;;;;;4999733;28;20455;-59
2022/09/12 00:33:08;;;;;;;21.17;13.18;;;18.00;57.70;;;;;;5003916;28;20072;-57
2022/09/12 00:35:40;;;;;;;20.30;12.35;;;18.00;57.70;;;;;;5002720;28;20061;-59
2022/09/12 00:38:07;;;;;;;20.13;13.02;;;18.00;57.70;;;;;;5003078;28;20068;-59
2022/09/12 00:40:34;;;;;;;19.55;12.88;;;18.00;57.70;;;;;;4998764;28;21661;-59
2022/09/12 00:43:01;;;;;;;20.52;13.65;;;18.00;57.80;;;;;;5002876;28;20062;-59
2022/09/12 00:45:30;;;;;;;19.92;13.75;;;18.00;57.80;;;;;;5002755;28;20512;-59
2022/09/12 00:48:02;;;;;;;28.95;16.90;;;18.00;57.90;;;;;;5002345;28;20057;-59
2022/09/12 00:50:31;;;;;;;25.05;14.35;;;17.90;58.00;;;;;;4997831;28;20056;-57
2022/09/12 00:53:02;;;;;;;22.20;14.07;;;17.90;57.90;;;;;;5002568;28;20494;-59
2022/09/12 00:55:34;;;;;;;19.85;12.77;;;17.90;58.00;;;;;;5001804;28;20057;-55
2022/09/12 00:58:06;;;;;;;21.55;13.73;;;17.90;58.00;;;;;;5000988;28;20057;-59
2022/09/12 01:00:33;;;;;;;21.88;13.40;;;17.90;58.00;;;;;;4996604;28;20058;-60
2022/09/12 01:03:05;;;;;;;19.90;12.75;;;17.90;58.00;;;;;;5003625;28;20544;-52
2022/09/12 01:05:36;;;;;;;21.48;13.73;;;17.90;58.00;;;;;;5002588;28;20050;-59
2022/09/12 01:08:05;;;;;;;24.40;16.13;;;17.90;58.10;;;;;;4995770;28;20050;-59
2022/09/12 01:10:35;;;;;;;21.55;12.75;;;17.80;58.10;;;;;;4998285;28;20084;-59
2022/09/12 01:13:04;;;;;;;20.33;13.32;;;17.80;58.10;;;;;;5002511;28;20516;-59
2022/09/12 01:15:32;;;;;;;20.00;13.43;;;17.80;58.10;;;;;;5000068;28;20054;-58
2022/09/12 01:18:12;;;;;;;23.25;14.40;;;17.80;58.20;;;;;;5001580;28;20402;-58
2022/09/12 01:21:03;;;;;;;17.17;12.27;;;17.80;58.30;;;;;;4999041;28;20076;-59
2022/09/12 01:24:11;;;;;;;18.50;12.18;;;17.80;58.40;;;;;;5003334;28;20065;-59
2022/09/12 01:26:57;;;;;;;21.90;13.82;;;17.70;58.30;;;;;;4970064;28;20049;-59
2022/09/12 01:29:52;;;;;;;21.10;13.32;;;17.70;58.30;;;;;;5002713;28;20520;-59
2022/09/12 01:32:28;;;;;;;17.55;12.57;;;17.70;58.40;;;;;;4998975;28;20070;-59
2022/09/12 01:35:04;;;;;;;21.73;13.30;;;17.70;58.30;;;;;;5002258;28;20057;-59
2022/09/12 01:37:40;;;;;;;25.80;14.07;;;17.70;58.30;;;;;;4996543;28;20498;-58
2022/09/12 01:40:15;;;;;;;18.45;11.80;;;17.70;58.40;;;;;;4996157;28;21066;-59
2022/09/12 01:42:49;;;;;;;20.58;12.35;;;17.60;58.30;;;;;;5000164;28;20062;-58
2022/09/12 01:45:21;;;;;;;20.80;14.23;;;17.60;58.40;;;;;;5000997;28;20062;-59
2022/09/12 01:47:53;;;;;;;18.65;11.85;;;17.60;58.40;;;;;;5001784;28;20054;-57
2022/09/12 01:50:24;;;;;;;18.63;12.02;;;17.60;58.50;;;;;;4997860;28;20069;-59
2022/09/12 01:52:57;;;;;;;20.77;13.00;;;17.60;58.60;;;;;;5002608;28;20057;-55
2022/09/12 01:55:28;;;;;;;19.35;11.02;;;17.60;58.60;;;;;;5001442;28;20421;-59
2022/09/12 01:58:00;;;;;;;18.13;12.35;;;17.50;58.60;;;;;;4999905;28;20512;-57
2022/09/12 02:00:27;;;;;;;16.67;11.30;;;17.60;58.70;;;;;;4995211;28;20054;-60
2022/09/12 02:03:01;;;;;;;18.15;12.27;;;17.50;58.60;;;;;;5001008;28;20553;-59
2022/09/12 02:05:33;;;;;;;20.33;12.77;;;17.50;58.70;;;;;;5000648;28;20390;-59
2022/09/12 02:08:06;;;;;;;22.15;13.82;;;17.50;58.70;;;;;;4997467;28;20050;-59
2022/09/12 02:10:38;;;;;;;16.70;11.30;;;17.50;58.70;;;;;;4998586;28;20068;-59
2022/09/12 02:13:11;;;;;;;15.10;10.40;;;17.50;58.70;;;;;;4999688;28;20489;-59
2022/09/12 02:15:43;;;;;;;12.83;9.47;;;17.50;58.70;;;;;;5000241;28;20056;-59
2022/09/12 02:18:14;;;;;;;17.00;11.23;;;17.50;58.70;;;;;;4999158;28;20062;-59
2022/09/12 02:20:45;;;;;;;19.05;11.10;;;17.40;58.60;;;;;;4997670;28;20054;-57
2022/09/12 02:23:16;;;;;;;21.67;11.65;;;17.50;58.70;;;;;;5002473;28;20061;-59
2022/09/12 02:25:46;;;;;;;19.48;11.90;;;17.40;58.60;;;;;;5001616;28;20064;-59
2022/09/12 02:28:17;;;;;;;17.20;11.07;;;17.40;58.60;;;;;;5002806;28;20506;-59
2022/09/12 02:30:55;;;;;;;15.27;10.40;;;17.40;58.70;;;;;;5002536;28;20061;-51
2022/09/12 02:33:30;;;;;;;14.93;9.93;;;17.40;58.70;;;;;;5003715;28;20239;-49
2022/09/12 02:36:03;;;;;;;16.55;10.43;;;17.40;58.80;;;;;;5006221;28;20053;-47
2022/09/12 02:38:36;;;;;;;16.25;10.02;;;17.40;58.70;;;;;;5002824;28;20126;-51
2022/09/12 02:41:04;;;;;;;17.95;11.32;;;17.30;58.70;;;;;;5000653;28;20065;-50
2022/09/12 02:43:31;;;;;;;15.02;9.93;;;17.30;58.70;;;;;;5005574;28;20421;-52
2022/09/12 02:45:58;;;;;;;17.00;10.60;;;17.40;58.80;;;;;;4996333;28;20512;-48
2022/09/12 02:48:34;;;;;;;15.20;9.93;;;17.30;58.70;;;;;;5002347;28;20061;-59
2022/09/12 02:51:02;;;;;;;16.50;10.38;;;17.30;58.70;;;;;;4999177;28;20053;-53
2022/09/12 02:53:29;;;;;;;15.85;10.85;;;17.30;58.70;;;;;;5005395;28;20498;-47
2022/09/12 02:55:57;;;;;;;22.33;11.32;;;17.30;58.70;;;;;;5001804;28;20474;-48
2022/09/12 02:58:28;;;;;;;14.00;10.30;;;17.30;58.80;;;;;;5003542;28;20053;-49
2022/09/12 03:01:04;;;;;;;17.23;10.35;;;17.30;58.80;;;;;;5000678;28;20053;-49
2022/09/12 03:03:50;;;;;;;16.38;10.65;;;17.20;58.80;;;;;;5002539;28;20054;-49
2022/09/12 03:06:24;;;;;;;16.98;11.65;;;17.20;58.80;;;;;;5005085;28;20046;-56
2022/09/12 03:09:03;;;;;;;13.55;9.75;;;17.20;58.80;;;;;;4995705;28;20069;-50
2022/09/12 03:11:52;;;;;;;15.60;10.15;;;17.20;58.80;;;;;;4997715;28;20069;-51
2022/09/12 03:14:46;;;;;;;13.95;9.65;;;17.20;58.90;;;;;;4999311;28;20509;-48
2022/09/12 03:17:21;;;;;;;13.48;9.60;;;17.20;58.90;;;;;;4993300;28;20054;-48
2022/09/12 03:19:58;;;;;;;14.68;9.57;;;17.20;58.90;;;;;;5003514;28;20050;-50
2022/09/12 03:22:31;;;;;;;15.63;9.77;;;17.20;58.90;;;;;;5003443;28;20433;-51
2022/09/12 03:25:05;;;;;;;12.80;9.18;;;17.20;59.00;;;;;;5002945;28;20045;-48
2022/09/12 03:27:36;;;;;;;15.50;9.73;;;17.10;59.00;;;;;;5003587;28;20429;-46
2022/09/12 03:30:05;;;;;;;14.32;9.68;;;17.20;59.00;;;;;;5002864;28;20509;-46
2022/09/12 03:32:43;;;;;;;14.75;9.77;;;17.10;59.00;;;;;;5003979;28;20076;-48
2022/09/12 03:35:14;;;;;;;17.52;9.85;;;17.10;59.10;;;;;;5002668;28;20061;-50
2022/09/12 03:37:41;;;;;;;15.43;10.05;;;17.10;59.00;;;;;;5004888;28;20054;-47
2022/09/12 03:40:10;;;;;;;12.93;9.43;;;17.10;59.00;;;;;;4999222;28;20065;-47
2022/09/12 03:42:37;;;;;;;14.38;9.75;;;17.10;59.10;;;;;;5000939;28;20537;-49
2022/09/12 03:45:05;;;;;;;12.90;9.15;;;17.10;59.00;;;;;;5004303;28;20054;-51
2022/09/12 03:47:32;;;;;;;13.68;9.52;;;17.10;59.10;;;;;;5001677;28;20065;-48
2022/09/12 03:50:00;;;;;;;13.73;9.65;;;17.10;59.10;;;;;;5003011;28;20414;-52
2022/09/12 03:52:28;;;;;;;19.23;11.60;;;17.10;59.10;;;;;;5003898;28;20409;-49
2022/09/12 03:54:56;;;;;;;15.48;10.85;;;17.00;59.10;;;;;;5004678;28;20046;-51
2022/09/12 03:57:23;;;;;;;17.90;10.73;;;17.00;59.20;;;;;;5001813;28;20069;-53
2022/09/12 03:59:50;;;;;;;14.48;10.50;;;17.00;59.20;;;;;;5001023;28;20054;-56
2022/09/12 04:02:18;;;;;;;16.73;10.88;;;17.00;59.30;;;;;;5001872;28;20061;-48
2022/09/12 04:04:46;;;;;;;13.75;9.68;;;17.00;59.40;;;;;;5004081;28;20058;-50
2022/09/12 04:07:14;;;;;;;17.88;12.18;;;17.00;59.50;;;;;;5000568;28;20053;-50
2022/09/12 04:09:42;;;;;;;14.68;10.10;;;17.00;59.50;;;;;;5001850;28;20061;-49
2022/09/12 04:12:10;;;;;;;13.25;9.43;;;17.00;59.50;;;;;;4998938;28;20494;-51
2022/09/12 04:14:37;;;;;;;14.05;9.55;;;17.00;59.60;;;;;;5002374;28;20625;-47
2022/09/12 04:17:04;;;;;;;13.68;9.77;;;17.00;59.60;;;;;;4994147;28;20532;-47
2022/09/12 04:19:32;;;;;;;14.07;9.23;;;17.00;59.60;;;;;;4997994;28;20053;-49
2022/09/12 04:21:59;;;;;;;15.73;10.38;;;17.00;59.60;;;;;;5000725;28;20502;-49
2022/09/12 04:24:26;;;;;;;14.32;9.38;;;17.00;59.60;;;;;;5002161;28;20054;-48
2022/09/12 04:26:55;;;;;;;15.32;10.50;;;17.00;59.60;;;;;;4998576;28;20050;-49
2022/09/12 04:29:22;;;;;;;13.18;9.73;;;17.00;59.70;;;;;;4998306;28;20413;-50
2022/09/12 04:31:50;;;;;;;18.58;10.05;;;17.00;59.70;;;;;;4994311;28;20068;-51
2022/09/12 04:34:17;;;;;;;16.70;10.70;;;17.00;59.70;;;;;;4995818;28;20056;-51
2022/09/12 04:36:44;;;;;;;14.75;10.00;;;17.00;59.60;;;;;;5000033;28;20061;-50
2022/09/12 04:39:12;;;;;;;13.05;9.38;;;17.00;59.60;;;;;;5003606;28;20057;-49
2022/09/12 04:41:41;;;;;;;13.52;9.50;;;17.00;59.60;;;;;;4996478;28;20550;-48
2022/09/12 04:44:13;;;;;;;16.15;10.20;;;17.00;59.60;;;;;;5002007;28;20125;-51
2022/09/12 04:46:43;;;;;;;14.75;9.95;;;17.00;59.60;;;;;;5000773;28;20064;-47
2022/09/12 04:49:11;;;;;;;14.90;9.68;;;17.00;59.60;;;;;;5001570;28;20058;-50
2022/09/12 04:51:39;;;;;;;17.40;10.68;;;17.00;59.60;;;;;;4998709;28;20061;-50
2022/09/12 04:54:10;;;;;;;14.68;10.18;;;17.00;59.60;;;;;;5001313;28;20053;-50
2022/09/12 04:56:38;;;;;;;15.70;9.52;;;17.00;59.60;;;;;;5001036;28;20050;-49
2022/09/12 04:59:05;;;;;;;18.17;12.20;;;17.00;59.60;;;;;;5002213;28;20399;-50
2022/09/12 05:01:34;;;;;;;18.65;11.55;;;17.00;59.50;;;;;;5000556;28;20509;-50
2022/09/12 05:04:02;;;;;;;18.50;10.75;;;17.00;59.60;;;;;;5003480;28;20429;-48
2022/09/12 05:06:31;;;;;;;14.80;9.50;;;17.00;59.60;;;;;;5001677;28;20502;-49
2022/09/12 05:09:00;;;;;;;13.45;9.43;;;17.00;59.60;;;;;;5000339;28;20505;-49
2022/09/12 05:11:29;;;;;;;14.23;10.10;;;17.00;59.60;;;;;;4998779;28;20054;-51
2022/09/12 05:13:57;;;;;;;16.05;10.00;;;17.00;59.60;;;;;;4997321;28;20050;-48
2022/09/12 05:16:27;;;;;;;15.70;9.63;;;17.00;59.60;;;;;;5000225;28;20061;-49
2022/09/12 05:18:57;;;;;;;11.60;9.10;;;17.00;59.60;;;;;;4998537;28;20053;-48
2022/09/12 05:21:26;;;;;;;16.88;10.15;;;17.00;59.60;;;;;;4999119;28;20572;-48
2022/09/12 05:23:54;;;;;;;15.23;9.38;;;17.00;59.60;;;;;;5000480;28;20691;-53
2022/09/12 05:26:22;;;;;;;12.90;9.00;;;17.00;59.60;;;;;;5002137;28;20054;-49
2022/09/12 05:28:51;;;;;;;14.13;9.40;;;17.00;59.60;;;;;;5000165;28;20050;-54
2022/09/12 05:31:21;;;;;;;17.52;9.15;;;17.00;59.60;;;;;;4997834;28;20058;-46
2022/09/12 05:33:51;;;;;;;13.00;9.25;;;17.00;59.60;;;;;;5000909;28;20061;-51
2022/09/12 05:36:22;;;;;;;13.35;9.82;;;17.00;59.60;;;;;;5001720;28;20054;-50
2022/09/12 05:38:50;;;;;;;14.35;9.65;;;17.00;59.60;;;;;;5000259;28;20057;-48
2022/09/12 05:41:18;;;;;;;14.43;9.25;;;17.00;59.70;;;;;;4994223;28;20504;-55
2022/09/12 05:43:46;;;;;;;12.63;8.88;;;17.00;59.70;;;;;;4996865;28;20065;-50
2022/09/12 05:46:15;;;;;;;13.95;9.40;;;17.00;59.70;;;;;;5001022;28;20972;-52
2022/09/12 05:48:44;;;;;;;12.95;8.70;;;17.00;59.80;;;;;;5002374;28;20482;-49
2022/09/12 05:51:14;;;;;;;18.02;9.23;;;17.00;59.80;;;;;;4998791;28;20057;-49
2022/09/12 05:53:42;;;;;;;13.52;8.93;;;17.00;60.60;;;;;;5000304;28;20057;-48
2022/09/12 05:56:11;;;;;;;18.27;10.95;;;17.10;60.10;;;;;;5000086;28;20394;-51
2022/09/12 05:58:41;;;;;;;18.23;10.80;;;17.10;60.20;;;;;;5001874;28;20073;-52
2022/09/12 06:01:11;;;;;;;13.10;9.23;;;17.10;61.10;;;;;;4992847;28;22021;-53
2022/09/12 06:03:41;;;;;;;11.25;8.10;;;17.10;60.50;;;;;;5002553;28;20057;-48
2022/09/12 06:06:12;;;;;;;14.43;8.65;;;17.10;60.50;;;;;;5004823;28;20425;-54
2022/09/12 06:08:42;;;;;;;14.05;9.52;;;17.20;60.70;;;;;;5003167;28;20057;-50
2022/09/12 06:11:11;;;;;;;13.23;8.43;;;17.20;60.80;;;;;;4998779;28;20129;-51
2022/09/12 06:13:41;;;;;;;14.52;9.32;;;17.20;61.40;;;;;;5000859;28;20046;-50
2022/09/12 06:16:10;;;;;;;15.65;9.30;;;17.30;60.90;;;;;;5004430;28;20053;-49
2022/09/12 06:18:38;;;;;;;13.23;8.55;;;17.30;60.90;;;;;;5002582;28;20608;-53
2022/09/12 06:21:06;;;;;;;13.68;8.93;;;17.40;60.90;;;;;;5003725;28;20501;-50
2022/09/12 06:23:34;;;;;;;11.30;7.65;;;17.40;60.90;;;;;;5005416;28;20058;-46
2022/09/12 06:26:03;;;;;;;13.07;9.13;;;17.50;60.90;;;;;;5004535;28;20061;-48
2022/09/12 06:28:31;;;;;;;14.00;8.60;;;17.50;60.90;;;;;;5002499;28;20061;-47
2022/09/12 06:31:03;;;;;;;13.05;8.63;;;17.50;60.80;;;;;;4996499;28;20699;-51
2022/09/12 06:33:31;;;;;;;14.43;9.48;;;17.60;61.10;;;;;;5000964;28;20069;-50
2022/09/12 06:36:04;;;;;;;13.85;7.78;;;17.60;61.10;;;;;;4999646;28;20059;-45
2022/09/12 06:38:31;;;;;;;12.60;7.80;;;17.70;61.10;;;;;;5002817;28;20057;-45
2022/09/12 06:40:59;;;;;;;12.50;8.45;;;17.70;60.90;;;;;;4996051;28;20054;-51
2022/09/12 06:43:28;;;;;;;11.15;7.97;;;17.70;60.90;;;;;;4995556;28;20383;-51
2022/09/12 06:45:56;;;;;;;12.07;8.38;;;17.80;61.00;;;;;;5000867;28;20060;-48
2022/09/12 06:48:23;;;;;;;12.45;9.00;;;17.80;60.80;;;;;;5000074;28;20413;-48
2022/09/12 06:50:58;;;;;;;14.35;8.48;;;17.80;60.80;;;;;;4995335;28;20052;-49
2022/09/12 06:53:26;;;;;;;12.25;7.85;;;17.90;60.90;;;;;;5001252;28;20490;-52
2022/09/12 06:55:57;;;;;;;11.75;7.13;;;17.90;60.70;;;;;;5001645;28;20402;-49
2022/09/12 06:58:26;;;;;;;10.65;7.20;;;17.90;60.80;;;;;;5005114;28;20062;-51
2022/09/12 07:01:01;;;;;;;13.35;8.52;;;18.00;60.90;;;;;;4997509;28;20062;-50
2022/09/12 07:03:29;;;;;;;12.38;8.40;;;18.00;60.80;;;;;;5001516;28;20049;-50
2022/09/12 07:05:56;;;;;;;10.90;7.45;;;18.10;60.90;;;;;;5001458;28;20053;-50
2022/09/12 07:08:24;;;;;;;14.43;8.38;;;18.10;60.90;;;;;;5003376;28;20053;-50
2022/09/12 07:10:51;;;;;;;11.95;8.15;;;18.10;60.90;;;;;;5000019;28;20585;-51
2022/09/12 07:13:19;;;;;;;10.52;7.47;;;18.20;61.00;;;;;;5002773;28;20084;-47
2022/09/12 07:15:47;;;;;;;12.38;7.95;;;18.20;60.90;;;;;;5002689;28;20058;-48
2022/09/12 07:18:15;;;;;;;11.75;8.45;;;18.30;61.00;;;;;;5002850;28;20045;-48
2022/09/12 07:20:42;;;;;;;10.98;8.10;;;18.30;61.00;;;;;;4998907;28;20513;-49
2022/09/12 07:23:10;;;;;;;9.35;7.28;;;18.30;60.90;;;;;;4997196;28;20062;-49
2022/09/12 07:25:37;;;;;;;12.27;8.18;;;18.40;60.80;;;;;;5003153;28;20433;-45
2022/09/12 07:28:04;;;;;;;12.10;7.70;;;18.40;60.80;;;;;;5003640;28;20054;-51
2022/09/12 07:30:31;;;;;;;11.00;7.38;;;18.40;60.80;;;;;;4995629;28;20054;-50
2022/09/12 07:33:00;;;;;;;13.63;7.50;;;18.50;60.90;;;;;;5001830;28;20626;-49
2022/09/12 07:35:27;;;;;;;13.32;7.13;;;18.60;61.10;;;;;;5002006;28;20060;-51
2022/09/12 07:37:55;;;;;;;13.10;8.18;;;18.60;61.10;;;;;;4997180;28;20053;-50
2022/09/12 07:40:22;;;;;;;13.95;7.45;;;18.60;61.30;;;;;;4997170;28;20065;-49
2022/09/12 07:42:49;;;;;;;14.02;8.80;;;18.70;61.30;;;;;;5003136;28;20065;-49
2022/09/12 07:45:16;;;;;;;12.32;8.65;;;18.70;61.30;;;;;;5001056;28;20054;-55
2022/09/12 07:47:44;;;;;;;12.32;8.20;;;18.80;61.20;;;;;;5004934;28;20054;-49
2022/09/12 07:50:12;;;;;;;11.65;7.40;;;18.80;61.10;;;;;;5002917;28;20061;-45
2022/09/12 07:52:39;;;;;;;16.42;7.13;;;18.90;61.10;;;;;;5002339;28;20441;-49
2022/09/12 07:55:07;;;;;;;12.82;6.70;;;18.90;61.00;;;;;;5000321;28;20058;-45
2022/09/12 07:57:34;;;;;;;12.00;8.40;;;19.00;61.10;;;;;;5001679;28;20045;-51
2022/09/12 08:00:02;;;;;;;12.35;8.52;;;19.00;61.10;;;;;;4999550;28;20059;-55
2022/09/12 08:02:30;;;;;;;11.20;7.60;;;19.00;61.30;;;;;;5001692;28;20054;-48
2022/09/12 08:04:57;;;;;;;10.32;6.97;;;19.10;61.30;;;;;;4999765;28;20070;-46
2022/09/12 08:07:25;;;;;;;9.93;6.88;;;19.20;61.40;;;;;;5003675;28;20058;-49
2022/09/12 08:09:53;;;;;;;8.82;6.95;;;19.20;61.40;;;;;;4999513;28;20081;-47
2022/09/12 08:12:20;;;;;;;22.58;9.75;;;19.20;61.30;;;;;;4998961;28;20057;-51
2022/09/12 08:14:48;;;;;;;9.75;6.80;;;19.30;61.40;;;;;;4997311;28;20061;-49
2022/09/12 08:17:15;;;;;;;8.43;6.40;;;19.30;61.40;;;;;;4999695;28;20050;-50
2022/09/12 08:19:43;;;;;;;12.43;7.55;;;19.40;61.60;;;;;;4998904;28;20520;-52
2022/09/12 08:22:11;;;;;;;12.13;7.90;;;19.40;61.50;;;;;;5003546;28;20054;-45
2022/09/12 08:24:39;;;;;;;29.88;9.30;;;19.50;61.60;;;;;;5002670;28;20088;-49
2022/09/12 08:27:07;;;;;;;19.02;9.95;;;19.60;61.70;;;;;;5001317;28;20060;-47
2022/09/12 08:29:35;;;;;;;27.60;12.95;;;19.60;61.70;;;;;;5001649;28;20054;-51
2022/09/12 08:32:02;;;;;;;11.25;8.43;;;19.70;61.80;;;;;;4998688;28;20505;-47
2022/09/12 08:34:30;;;;;;;13.30;7.85;;;19.70;61.90;;;;;;5001367;28;20064;-48
2022/09/12 08:36:57;;;;;;;10.02;7.85;;;19.80;61.70;;;;;;5001208;28;20508;-49
2022/09/12 08:39:24;;;;;;;8.98;6.30;;;19.80;61.50;;;;;;5003955;28;20084;-50
2022/09/12 08:42:01;;;;;;;9.63;6.93;;;19.90;61.40;;;;;;4996446;28;20057;-47
2022/09/12 08:44:41;;;;;;;8.98;6.90;;;20.00;61.20;;;;;;5002264;28;20053;-48
2022/09/12 08:47:19;;;;;;;9.68;6.88;;;20.10;61.10;;;;;;5001612;28;20513;-50
2022/09/12 08:49:55;;;;;;;11.05;6.90;;;20.10;60.80;;;;;;5002212;28;20057;-49
2022/09/12 08:52:28;;;;;;;7.90;6.13;;;20.20;60.50;;;;;;4999956;28;20076;-50
2022/09/12 08:54:56;;;;;;;11.18;6.30;;;20.30;61.30;;;;;;4999282;28;20057;-49
2022/09/12 08:57:24;;;;;;;7.88;6.05;;;20.30;60.80;;;;;;5001263;28;20073;-50
2022/09/12 08:59:52;;;;;;;9.32;6.75;;;20.40;60.50;;;;;;4998102;28;20076;-50
2022/09/12 09:03:01;;;;;;;11.25;7.30;;;20.40;60.70;;;;;;4996076;28;20062;-51
2022/09/12 09:05:37;;;;;;;9.70;6.25;;;20.50;60.10;;;;;;4956852;28;20072;-48
2022/09/12 09:08:19;;;;;;;11.35;7.18;;;20.60;59.80;;;;;;4999595;28;20049;-50
2022/09/12 09:10:53;;;;;;;9.32;6.65;;;20.60;59.60;;;;;;4995618;28;20406;-50
2022/09/12 09:16:31;;;;;;;8.13;6.13;;;20.80;59.40;;;;;;5006737;28;20061;-51
2022/09/12 09:19:02;;;;;;;8.80;6.60;;;20.80;59.00;;;;;;5000275;28;20052;-47
2022/09/12 09:21:35;;;;;;;7.63;6.20;;;20.90;58.70;;;;;;4997843;28;20054;-49
2022/09/12 09:24:06;;;;;;;8.20;6.15;;;20.90;58.70;;;;;;4999485;28;20053;-50
2022/09/12 09:26:41;;;;;;;8.45;5.70;;;21.00;58.60;;;;;;5001469;28;20517;-47
2022/09/12 09:29:17;;;;;;;7.60;5.78;;;21.00;58.40;;;;;;5000112;28;20054;-46
2022/09/12 09:31:48;;;;;;;10.48;6.68;;;21.00;58.20;;;;;;4998613;28;20061;-46
2022/09/12 09:34:19;;;;;;;8.07;5.78;;;21.10;57.90;;;;;;5001223;28;20069;-47
2022/09/12 09:36:52;;;;;;;9.52;6.25;;;21.10;57.60;;;;;;5001221;28;20505;-46
2022/09/12 09:39:30;;;;;;;9.57;6.60;;;21.10;57.20;;;;;;5001025;28;20062;-48
2022/09/12 09:42:12;;;;;;;9.25;6.20;;;21.20;57.20;;;;;;4994337;28;20054;-51
2022/09/12 09:44:42;;;;;;;8.68;6.00;;;21.20;57.10;;;;;;4997337;28;20050;-49
2022/09/12 09:47:12;;;;;;;6.32;5.22;;;21.20;57.20;;;;;;4997678;28;20064;-49
2022/09/12 09:49:39;;;;;;;7.07;5.72;;;21.30;57.50;;;;;;4998990;28;20054;-50
2022/09/12 09:52:08;;;;;;;9.30;6.15;;;21.30;57.40;;;;;;4996173;28;20053;-54
2022/09/12 09:54:40;;;;;;;11.25;6.45;;;21.40;57.40;;;;;;4997333;28;20062;-53
2022/09/12 09:57:38;;;;;;;7.53;6.03;;;21.40;57.20;;;;;;4996912;28;20061;-51
2022/09/12 10:03:25;;;;;;;8.35;6.05;;;21.40;57.00;;;;;;5060977;28;21011;-46
2022/09/12 10:05:54;;;;;;;7.55;5.57;;;21.60;56.90;;;;;;5060240;28;20484;-50
2022/09/12 10:08:23;;;;;;;7.60;5.97;;;21.60;56.70;;;;;;5054491;28;20060;-52
2022/09/12 10:10:56;;;;;;;6.95;5.55;;;21.70;56.30;;;;;;5049498;28;20123;-50
2022/09/12 10:13:28;;;;;;;7.47;5.63;;;21.70;56.10;;;;;;5053948;28;20052;-50
2022/09/12 10:15:58;;;;;;;8.15;6.30;;;21.80;56.20;;;;;;5056413;28;20428;-49
2022/09/12 10:18:41;;;;;;;6.97;5.60;;;21.80;55.80;;;;;;5049046;28;20151;-52
2022/09/12 10:21:23;;;;;;;6.07;5.30;;;21.80;55.20;;;;;;5046570;28;20048;-47
2022/09/12 10:23:59;;;;;;;7.60;5.13;;;21.90;55.30;;;;;;5059108;28;20064;-51
2022/09/12 10:26:32;;;;;;;7.30;5.13;;;21.90;55.40;;;;;;5050526;28;20057;-49
2022/09/12 10:29:05;;;;;;;8.15;5.65;;;21.90;55.30;;;;;;5052712;28;20064;-48
2022/09/12 10:31:42;;;;;;;8.33;5.70;;;22.00;54.90;;;;;;5055704;28;20055;-49
2022/09/12 10:34:22;;;;;;;12.20;5.18;;;22.00;54.80;;;;;;5049275;28;20500;-47
2022/09/12 10:36:53;;;;;;;7.22;4.82;;;22.10;54.50;;;;;;5055861;28;20056;-47
2022/09/12 10:39:21;;;;;;;6.63;5.20;;;22.10;54.20;;;;;;5055506;28;20049;-56
2022/09/12 10:41:48;;;;;;;5.90;5.00;;;22.20;53.90;;;;;;5053322;28;20480;-49
2022/09/12 10:44:17;;;;;;;6.85;4.32;;;22.20;53.90;;;;;;5052218;28;20055;-49
2022/09/12 10:46:45;;;;;;;4.97;4.35;;;22.30;53.70;;;;;;5051508;28;20044;-49
2022/09/12 10:49:24;;;;;;;5.15;4.63;;;22.30;54.10;;;;;;5055494;28;20068;-47
2022/09/12 10:51:53;;;;;;;5.68;3.75;;;22.40;53.30;;;;;;5053830;28;20400;-50
2022/09/12 10:54:24;;;;;;;5.00;4.43;;;22.40;53.40;;;;;;5058506;28;20064;-49
2022/09/12 10:57:18;;;;;;;8.68;4.13;;;22.40;53.20;;;;;;5055231;28;20071;-50
2022/09/12 11:00:07;;;;;;;4.47;3.42;;;22.50;52.70;;;;;;5057322;28;20078;-49
2022/09/12 11:02:50;;;;;;;5.50;4.22;;;22.60;52.60;;;;;;5037749;28;20060;-50
2022/09/12 11:05:30;;;;;;;5.22;4.32;;;22.60;52.20;;;;;;5037434;28;20049;-54
2022/09/12 11:08:08;;;;;;;6.13;4.55;;;22.70;51.90;;;;;;5034415;28;20524;-48
2022/09/12 11:10:44;;;;;;;5.07;3.55;;;22.70;52.00;;;;;;5034655;28;20057;-49
2022/09/12 11:13:24;;;;;;;3.25;2.95;;;22.80;51.10;;;;;;5030203;28;20053;-51
2022/09/12 11:16:07;;;;;;;5.00;3.70;;;22.80;50.90;;;;;;5024683;28;20061;-50
2022/09/12 11:19:02;;;;;;;3.03;2.72;;;22.90;51.00;;;;;;5024794;28;20068;-47
2022/09/12 11:21:45;;;;;;;4.53;3.35;;;22.90;50.60;;;;;;5017517;28;20049;-51
2022/09/12 11:24:36;;;;;;;5.10;2.85;;;22.90;50.70;;;;;;5020741;28;20060;-49
2022/09/12 11:27:19;;;;;;;3.85;2.63;;;23.00;50.30;;;;;;5019873;28;20062;-48
2022/09/12 11:29:49;;;;;;;4.45;3.00;;;23.00;50.00;;;;;;5023868;28;20049;-51
2022/09/12 11:33:04;;;;;;;3.45;3.15;;;23.00;49.80;;;;;;5023337;28;20057;-47
2022/09/12 11:35:33;;;;;;;4.57;2.88;;;23.10;49.60;;;;;;5024059;28;20448;-49
2022/09/12 11:38:33;;;;;;;5.18;2.90;;;23.10;50.00;;;;;;5022012;28;20064;-48
2022/09/12 11:41:03;;;;;;;3.83;2.92;;;23.10;49.90;;;;;;5019922;28;20413;-49
2022/09/12 11:43:37;;;;;;;4.70;3.13;;;23.20;50.20;;;;;;5024114;28;20050;-56
2022/09/12 11:46:13;;;;;;;4.25;2.95;;;23.20;50.10;;;;;;5023792;28;20049;-46
2022/09/12 11:48:47;;;;;;;8.80;3.00;;;23.30;48.90;;;;;;5023029;28;20053;-48
2022/09/12 11:51:19;;;;;;;4.07;3.08;;;23.40;49.00;;;;;;5018860;28;20504;-50
2022/09/12 11:54:02;;;;;;;3.45;2.75;;;23.40;49.00;;;;;;5024260;28;20053;-47
2022/09/12 11:56:29;;;;;;;3.20;2.50;;;23.50;48.90;;;;;;5021080;28;20049;-51
2022/09/12 11:59:01;;;;;;;2.30;2.10;;;23.50;49.20;;;;;;5024069;28;20516;-50
2022/09/12 12:01:34;;;;;;;2.58;2.30;;;23.60;48.20;;;;;;5018594;28;20057;-50
2022/09/12 12:04:08;;;;;;;2.85;2.00;;;23.60;48.10;;;;;;5024136;28;20049;-51
2022/09/12 12:06:46;;;;;;;6.28;2.22;;;23.70;47.90;;;;;;5023829;28;20080;-47
2022/09/12 12:09:16;;;;;;;2.83;2.13;;;23.70;47.70;;;;;;5022410;28;20054;-53
2022/09/12 12:11:49;;;;;;;6.05;2.13;;;23.70;47.50;;;;;;5019476;28;20057;-47
2022/09/12 12:14:20;;;;;;;4.05;2.38;;;23.80;47.40;;;;;;5021106;28;20072;-48
2022/09/12 12:16:49;;;;;;;3.42;2.20;;;23.80;47.10;;;;;;5023680;28;20050;-53
2022/09/12 12:19:31;;;;;;;5.10;2.03;;;23.80;47.50;;;;;;5023968;28;20553;-50
2022/09/12 12:22:07;;;;;;;2.70;2.00;;;23.80;46.40;;;;;;5020339;28;20053;-52
2022/09/12 12:24:53;;;;;;;2.88;1.80;;;23.90;45.70;;;;;;5022503;28;20058;-48
2022/09/12 12:27:44;;;;;;;3.10;2.35;;;23.90;46.10;;;;;;5020822;28;20054;-48
2022/09/12 12:30:49;;;;;;;2.83;2.22;;;24.00;46.00;;;;;;5019181;28;20057;-47
2022/09/12 12:33:50;;;;;;;2.60;2.00;;;24.00;45.40;;;;;;5008423;28;20053;-49
2022/09/12 12:36:39;;;;;;;3.58;1.95;;;24.00;45.70;;;;;;5023208;28;20073;-49
2022/09/12 12:39:44;;;;;;;2.63;2.20;;;24.10;45.40;;;;;;5021922;28;20064;-53
2022/09/12 12:42:53;;;;;;;2.40;1.98;;;24.10;44.70;;;;;;5021140;28;20409;-50
2022/09/12 12:45:58;;;;;;;2.30;1.88;;;24.20;44.60;;;;;;4997432;28;20053;-51
2022/09/12 12:48:26;;;;;;;3.67;2.00;;;24.20;44.40;;;;;;5021226;28;20054;-50
2022/09/12 12:50:53;;;;;;;3.83;2.20;;;24.20;44.50;;;;;;5019439;28;20057;-50
2022/09/12 12:53:26;;;;;;;3.63;2.70;;;24.30;44.70;;;;;;5020640;28;20045;-53
2022/09/12 12:55:55;;;;;;;2.10;1.88;;;24.30;45.10;;;;;;5022197;28;20056;-50
2022/09/12 12:58:29;;;;;;;1.90;1.67;;;24.30;44.30;;;;;;5018381;28;20072;-52
2022/09/12 13:01:11;;;;;;;3.03;2.63;;;24.30;44.20;;;;;;5015572;28;20066;-50
2022/09/12 13:03:42;;;;;;;2.60;2.30;;;24.40;44.40;;;;;;5018044;28;20054;-48
2022/09/12 13:06:26;;;;;;;3.45;2.72;;;24.40;44.70;;;;;;5020727;28;20045;-50
2022/09/12 13:08:59;;;;;;;3.13;2.60;;;24.40;44.50;;;;;;5022656;28;20052;-51
2022/09/12 13:11:33;;;;;;;3.50;2.80;;;24.40;44.90;;;;;;5021122;28;20056;-51